Time;durP1;ratioP1;P1;durP2;ratioP2;P2;SDS_P1;SDS_P2;PMS_P1;PMS_P2;Temp;Humidity;BMP_temperature;BMP_pressure;BME280_temperature;BME280_humidity;BME280_pressure;Samples;Min_cycle;Max_cycle;Signal;HPM_P1;HPM_P2
2022/10/01 00:00:27;;;;;;;4.27;3.13;;;;;;;11.00;100.00;100320.09;5095923;28;20032;-34
2022/10/01 00:02:55;;;;;;;4.35;3.60;;;;;;;10.99;100.00;100323.88;5096207;28;20032;-35
2022/10/01 00:05:21;;;;;;;4.63;3.33;;;;;;;10.96;100.00;100316.25;5077503;28;20035;-34
2022/10/01 00:07:46;;;;;;;6.53;3.47;;;;;;;10.85;100.00;100282.00;5096045;28;20062;-35
2022/10/01 00:10:14;;;;;;;5.33;3.57;;;;;;;10.90;100.00;100301.81;5095893;28;20673;-34
2022/10/01 00:12:46;;;;;;;5.45;3.15;;;;;;;10.94;100.00;100308.38;5095931;28;20028;-34
2022/10/01 00:15:15;;;;;;;5.53;3.80;;;;;;;10.91;100.00;100287.22;5095600;28;20031;-35
2022/10/01 00:17:42;;;;;;;3.88;3.22;;;;;;;10.98;100.00;100282.47;5095798;28;20027;-35
2022/10/01 00:20:08;;;;;;;4.00;3.38;;;;;;;10.89;100.00;100265.03;5095878;28;20409;-35
2022/10/01 00:22:35;;;;;;;7.85;3.30;;;;;;;10.98;100.00;100274.38;5095209;28;20078;-35
2022/10/01 00:25:01;;;;;;;3.45;3.15;;;;;;;10.98;100.00;100277.06;5095354;28;20024;-34
2022/10/01 00:27:27;;;;;;;3.63;3.10;;;;;;;10.97;100.00;100280.81;5095588;28;20032;-35
2022/10/01 00:29:52;;;;;;;;;;;;;;;11.01;100.00;100273.84;5095727;28;20081;-34
2022/10/01 00:32:18;;;;;;;3.70;3.05;;;;;;;11.01;100.00;100273.03;5095612;28;19963;-35
2022/10/01 00:34:43;;;;;;;3.92;3.53;;;;;;;10.97;100.00;100258.34;5095658;28;20024;-35
2022/10/01 00:37:09;;;;;;;5.73;3.73;;;;;;;10.96;100.00;100243.19;5095817;28;20024;-35
2022/10/01 00:39:35;;;;;;;4.17;3.47;;;;;;;10.95;100.00;100253.22;5095206;28;20111;-35
2022/10/01 00:42:01;;;;;;;6.63;4.00;;;;;;;10.97;100.00;100272.69;5095411;28;20034;-35
2022/10/01 00:44:36;;;;;;;3.60;3.10;;;;;;;10.97;100.00;100264.59;5095178;28;20078;-35
2022/10/01 00:47:25;;;;;;;3.90;3.50;;;;;;;10.98;100.00;100263.53;5094982;28;20032;-35
2022/10/01 00:50:00;;;;;;;5.45;3.10;;;;;;;10.94;100.00;100254.28;4993022;28;20062;-35
2022/10/01 00:52:30;;;;;;;4.00;3.60;;;;;;;10.90;100.00;100242.31;4993811;28;20166;-35
2022/10/01 00:55:05;;;;;;;4.15;3.25;;;;;;;10.94;100.00;100248.88;4992921;28;20142;-35
2022/10/01 00:57:32;;;;;;;4.40;3.30;;;;;;;10.95;100.00;100246.97;4993605;28;20467;-35
2022/10/01 01:00:01;;;;;;;4.72;3.40;;;;;;;10.95;100.00;100245.09;4992913;28;20144;-35
2022/10/01 01:02:26;;;;;;;6.40;3.20;;;;;;;10.92;100.00;100245.56;4992999;28;20072;-35
2022/10/01 01:04:52;;;;;;;4.23;3.50;;;;;;;10.91;100.00;100245.84;4993280;28;20070;-35
2022/10/01 01:07:18;;;;;;;3.63;3.20;;;;;;;10.92;100.00;100248.28;4993103;28;20073;-35
2022/10/01 01:09:46;;;;;;;6.07;3.50;;;;;;;10.83;100.00;100228.13;4992689;28;20034;-35
2022/10/01 01:12:23;;;;;;;4.72;3.83;;;;;;;10.79;100.00;100230.53;4992796;28;20121;-35
2022/10/01 01:15:11;;;;;;;4.32;2.97;;;;;;;10.81;100.00;100232.97;4993319;28;20043;-35
2022/10/01 01:18:01;;;;;;;5.13;3.10;;;;;;;10.80;100.00;100166.44;4987320;28;20089;-35
2022/10/01 01:20:41;;;;;;;4.85;3.50;;;;;;;10.73;100.00;100144.94;4992715;28;20052;-35
2022/10/01 01:23:16;;;;;;;3.63;3.00;;;;;;;10.63;100.00;100130.47;4992828;28;20037;-35
2022/10/01 01:25:46;;;;;;;4.35;3.45;;;;;;;10.68;100.00;100125.13;4994264;28;20439;-35
2022/10/01 01:28:23;;;;;;;3.47;3.00;;;;;;;10.66;100.00;100138.09;5094662;28;20024;-33
2022/10/01 01:30:51;;;;;;;3.60;3.13;;;;;;;10.64;100.00;100154.59;5094488;28;20028;-35
2022/10/01 01:33:21;;;;;;;3.63;2.97;;;;;;;10.64;100.00;100145.63;5094124;28;20024;-35
2022/10/01 01:36:03;;;;;;;4.57;3.00;;;;;;;10.71;100.00;100151.69;5075969;28;20516;-35
2022/10/01 01:38:36;;;;;;;3.92;2.85;;;;;;;10.72;100.00;100159.53;5094183;28;20032;-34
2022/10/01 01:41:03;;;;;;;2.97;2.35;;;;;;;10.74;100.00;100162.03;5093890;28;20078;-34
2022/10/01 01:43:32;;;;;;;2.85;2.17;;;;;;;10.76;100.00;100182.31;5093898;28;20404;-34
2022/10/01 01:46:01;;;;;;;3.40;2.15;;;;;;;10.77;100.00;100169.63;5094161;28;20339;-35
2022/10/01 01:48:29;;;;;;;3.15;2.10;;;;;;;10.73;100.00;100161.19;5094027;28;20157;-34
2022/10/01 01:51:46;;;;;;;2.90;1.92;;;;;;;10.73;100.00;100134.13;5093777;28;20044;-34
2022/10/01 01:54:11;;;;;;;2.60;1.77;;;;;;;10.68;100.00;100130.53;4992424;28;20399;-35
2022/10/01 01:56:37;;;;;;;3.08;1.98;;;;;;;10.74;100.00;100137.69;4991765;28;20042;-34
2022/10/01 01:59:03;;;;;;;3.40;2.33;;;;;;;10.71;100.00;100128.16;4991791;28;20038;-35
2022/10/01 02:01:42;;;;;;;2.25;2.05;;;;;;;10.68;100.00;100136.78;4991795;28;20030;-34
2022/10/01 02:04:27;;;;;;;2.50;2.00;;;;;;;10.74;100.00;100124.16;4992344;28;20045;-34
2022/10/01 02:07:08;;;;;;;3.63;2.13;;;;;;;10.74;100.00;100124.16;4991727;28;20035;-34
2022/10/01 02:09:43;;;;;;;3.28;1.92;;;;;;;10.71;100.00;100124.66;4991949;28;20049;-34
2022/10/01 02:12:16;;;;;;;3.58;1.90;;;;;;;10.69;100.00;100124.09;4991696;28;20026;-35
2022/10/01 02:15:07;;;;;;;4.47;2.03;;;;;;;10.69;100.00;100132.22;4992256;28;20073;-35
2022/10/01 02:17:35;;;;;;;3.75;1.95;;;;;;;10.68;100.00;100117.03;4991665;28;20496;-34
2022/10/01 02:20:14;;;;;;;3.13;1.92;;;;;;;10.68;100.00;100103.50;4991318;28;20045;-34
2022/10/01 02:22:56;;;;;;;2.80;1.60;;;;;;;10.72;100.00;100099.25;4991389;28;20093;-35
2022/10/01 02:25:25;;;;;;;2.47;1.50;;;;;;;10.69;100.00;100088.94;4991265;28;20045;-35
2022/10/01 02:28:01;;;;;;;2.88;1.70;;;;;;;10.71;100.00;100092.19;4991710;28;20466;-35
2022/10/01 02:30:28;;;;;;;3.17;1.80;;;;;;;10.68;100.00;100088.09;5083661;28;20040;-34
2022/10/01 02:32:57;;;;;;;1.70;1.40;;;;;;;10.71;100.00;100101.13;5093470;28;20611;-34
2022/10/01 02:35:24;;;;;;;2.10;1.58;;;;;;;10.70;100.00;100091.38;5092984;28;20059;-34
2022/10/01 02:37:52;;;;;;;2.15;1.73;;;;;;;10.67;100.00;100085.66;5093564;28;20103;-34
2022/10/01 02:40:25;;;;;;;4.03;1.60;;;;;;;10.68;100.00;100077.28;5092618;28;20472;-35
2022/10/01 02:42:54;;;;;;;1.80;1.27;;;;;;;10.69;100.00;100062.72;5093736;28;20024;-34
2022/10/01 02:45:22;;;;;;;1.67;1.23;;;;;;;10.70;100.00;100071.66;5093088;28;20470;-34
2022/10/01 02:48:10;;;;;;;1.67;1.38;;;;;;;10.69;100.00;100064.59;5093094;28;20103;-34
2022/10/01 02:50:48;;;;;;;3.47;1.38;;;;;;;10.67;100.00;100051.31;5093374;28;20456;-35
2022/10/01 02:53:27;;;;;;;1.60;1.13;;;;;;;10.62;100.00;100050.44;5093272;28;20036;-35
2022/10/01 02:55:55;;;;;;;1.80;1.30;;;;;;;10.68;100.00;100060.25;5092971;28;20047;-35
2022/10/01 02:58:20;;;;;;;2.63;1.33;;;;;;;10.70;100.00;100074.34;5092594;28;20028;-35
2022/10/01 03:00:46;;;;;;;1.80;1.27;;;;;;;10.73;100.00;100063.00;5093239;28;20035;-35
2022/10/01 03:03:11;;;;;;;1.63;1.20;;;;;;;10.67;100.00;100053.22;5092574;28;20428;-34
2022/10/01 03:05:37;;;;;;;1.90;1.30;;;;;;;10.75;100.00;100063.59;5092514;28;20032;-34
2022/10/01 03:08:02;;;;;;;1.70;1.27;;;;;;;10.76;100.00;100062.53;5093092;28;20028;-35
2022/10/01 03:10:27;;;;;;;1.00;0.77;;;;;;;10.77;100.00;100064.16;5093907;28;20372;-34
2022/10/01 03:12:52;;;;;;;1.13;0.97;;;;;;;10.81;100.00;100059.88;5078777;28;20265;-34
2022/10/01 03:15:19;;;;;;;1.10;0.90;;;;;;;10.77;100.00;100072.25;5096811;28;20028;-35
2022/10/01 03:17:49;;;;;;;1.55;0.90;;;;;;;10.83;100.00;100061.28;5097020;28;20031;-34
2022/10/01 03:20:14;;;;;;;1.50;1.00;;;;;;;10.79;100.00;100051.22;5096954;28;20081;-35
2022/10/01 03:22:40;;;;;;;3.08;0.90;;;;;;;10.77;100.00;100067.66;5096911;28;20118;-34
2022/10/01 03:25:05;;;;;;;1.53;0.93;;;;;;;10.83;100.00;100068.53;5096223;28;20036;-35
2022/10/01 03:27:31;;;;;;;1.00;0.90;;;;;;;10.78;100.00;100054.97;5096583;28;20023;-35
2022/10/01 03:29:56;;;;;;;2.10;1.20;;;;;;;10.86;100.00;100054.53;5096398;28;20427;-35
2022/10/01 03:32:21;;;;;;;2.03;0.90;;;;;;;10.85;100.00;100050.19;5096391;28;20251;-34
2022/10/01 03:34:47;;;;;;;1.20;0.95;;;;;;;10.89;100.00;100053.22;5096654;28;20032;-35
2022/10/01 03:37:12;;;;;;;1.10;0.80;;;;;;;10.91;100.00;100061.91;5096591;28;20028;-34
2022/10/01 03:39:38;;;;;;;1.05;0.75;;;;;;;10.91;100.00;100049.19;5096478;28;20047;-35
2022/10/01 03:42:04;;;;;;;1.45;0.80;;;;;;;10.94;100.00;100046.00;5096494;28;20369;-35
2022/10/01 03:44:30;;;;;;;5.50;0.80;;;;;;;10.95;100.00;100061.13;5096105;28;20035;-35
2022/10/01 03:46:56;;;;;;;1.17;0.60;;;;;;;10.97;100.00;100061.69;5096383;28;20081;-34
2022/10/01 03:49:21;;;;;;;0.98;0.70;;;;;;;10.98;100.00;100055.22;5095957;28;20083;-35
2022/10/01 03:51:46;;;;;;;2.10;0.70;;;;;;;11.01;100.00;100064.72;5096476;28;20058;-34
2022/10/01 03:54:12;;;;;;;0.80;0.70;;;;;;;11.02;100.00;100063.63;5095985;28;20060;-35
2022/10/01 03:56:39;;;;;;;1.98;0.73;;;;;;;11.04;100.00;100075.03;5096701;28;20031;-34
2022/10/01 03:59:05;;;;;;;1.75;0.80;;;;;;;11.05;100.00;100069.38;5096382;28;20106;-34
2022/10/01 04:01:30;;;;;;;1.30;0.80;;;;;;;11.04;100.00;100058.81;5095863;28;20131;-35
2022/10/01 04:03:55;;;;;;;0.80;0.60;;;;;;;10.98;100.00;100048.97;5095516;28;20051;-34
2022/10/01 04:06:21;;;;;;;1.90;0.70;;;;;;;11.12;100.00;100079.19;5095785;28;20032;-35
2022/10/01 04:08:46;;;;;;;1.23;0.70;;;;;;;11.12;100.00;100068.34;5095890;28;20115;-35
2022/10/01 04:11:11;;;;;;;1.30;0.50;;;;;;;11.16;100.00;100069.50;5095628;28;20089;-35
2022/10/01 04:13:37;;;;;;;0.90;0.60;;;;;;;11.18;100.00;100072.78;5095729;28;20378;-35
2022/10/01 04:16:03;;;;;;;0.77;0.63;;;;;;;11.15;100.00;100054.31;5096110;28;20039;-35
2022/10/01 04:18:29;;;;;;;0.55;0.50;;;;;;;11.08;100.00;100046.41;5095250;28;20028;-34
2022/10/01 04:20:54;;;;;;;1.55;0.70;;;;;;;11.24;100.00;100055.50;5095008;28;20050;-35
2022/10/01 04:23:21;;;;;;;1.10;0.60;;;;;;;11.24;100.00;100063.63;5095747;28;20059;-34
2022/10/01 04:25:46;;;;;;;3.05;0.50;;;;;;;11.27;100.00;100063.94;5095349;28;20032;-35
2022/10/01 04:28:13;;;;;;;0.70;0.50;;;;;;;11.23;100.00;100049.28;5095198;28;20104;-34
2022/10/01 04:30:41;;;;;;;0.45;0.40;;;;;;;11.26;100.00;100062.28;5094928;28;20036;-35
2022/10/01 04:33:12;;;;;;;1.88;0.60;;;;;;;11.33;100.00;100071.03;5095181;28;20039;-35
2022/10/01 04:35:38;;;;;;;1.83;0.70;;;;;;;11.35;100.00;100076.19;5095158;28;20024;-35
2022/10/01 04:38:11;;;;;;;0.68;0.40;;;;;;;11.35;100.00;100070.78;5094923;28;20042;-35
2022/10/01 04:40:37;;;;;;;0.80;0.60;;;;;;;11.36;100.00;100075.13;5095122;28;20440;-35
2022/10/01 04:43:04;;;;;;;0.98;0.50;;;;;;;11.37;100.00;100082.19;5094868;28;20031;-34
2022/10/01 04:45:30;;;;;;;1.05;0.50;;;;;;;11.40;100.00;100089.78;5094986;28;20028;-35
2022/10/01 04:47:56;;;;;;;1.55;0.70;;;;;;;11.39;100.00;100085.44;5094980;28;20513;-35
2022/10/01 04:50:24;;;;;;;0.50;0.40;;;;;;;11.43;100.00;100094.69;5095232;28;20056;-35
2022/10/01 04:52:50;;;;;;;0.98;0.52;;;;;;;11.44;100.00;100093.63;5094722;28;20051;-35
2022/10/01 04:55:18;;;;;;;1.38;0.63;;;;;;;11.48;100.00;100102.06;5094874;28;20023;-35
2022/10/01 04:57:43;;;;;;;1.30;0.60;;;;;;;11.51;100.00;100102.34;5094843;28;20357;-34
2022/10/01 05:00:12;;;;;;;1.15;0.70;;;;;;;11.44;100.00;100099.03;5094793;28;20042;-34
2022/10/01 05:02:37;;;;;;;1.58;0.70;;;;;;;11.53;100.00;100104.81;5095197;28;20380;-34
2022/10/01 05:05:05;;;;;;;0.90;0.70;;;;;;;11.52;100.00;100104.00;5094302;28;20056;-35
2022/10/01 05:07:31;;;;;;;1.75;0.77;;;;;;;11.54;100.00;100109.16;5094226;28;20430;-35
2022/10/01 05:09:56;;;;;;;1.15;0.80;;;;;;;11.57;100.00;100114.06;5094340;28;20119;-35
2022/10/01 05:12:24;;;;;;;0.70;0.60;;;;;;;11.57;100.00;100108.66;5094172;28;20038;-35
2022/10/01 05:14:52;;;;;;;2.03;0.70;;;;;;;11.50;100.00;100105.31;5094304;28;20149;-35
2022/10/01 05:17:18;;;;;;;0.95;0.70;;;;;;;11.52;100.00;100106.72;5095114;28;20479;-35
2022/10/01 05:19:44;;;;;;;1.13;0.98;;;;;;;11.60;100.00;100132.50;5094043;28;20100;-35
2022/10/01 05:22:10;;;;;;;1.15;0.82;;;;;;;11.56;100.00;100115.94;5094965;28;20028;-35
2022/10/01 05:24:35;;;;;;;3.35;1.08;;;;;;;11.63;100.00;100125.78;5094533;28;20089;-35
2022/10/01 05:27:00;;;;;;;1.13;1.03;;;;;;;11.64;100.00;100138.22;5076323;28;20118;-35
2022/10/01 05:29:26;;;;;;;1.27;0.90;;;;;;;11.66;100.00;100131.47;5094012;28;20419;-34
2022/10/01 05:31:51;;;;;;;1.50;1.40;;;;;;;11.70;100.00;100145.31;5094098;28;20456;-35
2022/10/01 05:34:16;;;;;;;1.47;1.20;;;;;;;11.64;100.00;100124.69;5093165;28;20464;-35
2022/10/01 05:36:42;;;;;;;1.93;1.10;;;;;;;11.72;100.00;100137.78;5094384;28;20050;-35
2022/10/01 05:39:07;;;;;;;2.30;1.50;;;;;;;11.74;100.00;100141.03;5094046;28;20032;-35
2022/10/01 05:41:32;;;;;;;2.45;1.50;;;;;;;11.76;100.00;100152.41;5093843;28;20077;-35
2022/10/01 05:43:58;;;;;;;1.67;1.37;;;;;;;11.75;100.00;100145.38;5094069;28;20113;-35
2022/10/01 05:46:23;;;;;;;3.87;1.63;;;;;;;11.79;100.00;100151.91;5093809;28;20024;-35
2022/10/01 05:48:50;;;;;;;2.30;2.00;;;;;;;11.76;100.00;100164.09;5093807;28;20063;-35
2022/10/01 05:51:16;;;;;;;2.63;1.80;;;;;;;11.76;100.00;100152.41;5093387;28;20138;-35
2022/10/01 05:53:41;;;;;;;2.22;2.00;;;;;;;11.82;100.00;100162.28;5093709;28;20020;-35
2022/10/01 05:56:07;;;;;;;2.95;2.40;;;;;;;11.85;100.00;100172.59;5093534;28;20479;-35
2022/10/01 05:58:33;;;;;;;2.17;2.03;;;;;;;11.80;100.00;100165.19;5093603;28;20024;-35
2022/10/01 06:00:58;;;;;;;2.72;2.45;;;;;;;11.87;100.00;100170.47;5093262;28;20032;-35
2022/10/01 06:03:25;;;;;;;2.73;2.53;;;;;;;11.81;100.00;100160.63;5093242;28;20115;-35
2022/10/01 06:05:51;;;;;;;3.78;2.83;;;;;;;11.89;100.00;100172.91;5093103;28;20266;-35
2022/10/01 06:08:16;;;;;;;4.47;2.80;;;;;;;11.85;100.00;100169.88;5094068;28;20077;-35
2022/10/01 06:10:42;;;;;;;5.80;2.90;;;;;;;11.82;100.00;100163.09;5093523;28;20540;-35
2022/10/01 06:13:07;;;;;;;3.60;3.30;;;;;;;11.91;100.00;100179.72;5093916;28;20598;-35
2022/10/01 06:15:36;;;;;;;3.67;3.37;;;;;;;11.93;100.00;100185.69;5093504;28;20110;-35
2022/10/01 06:18:12;;;;;;;4.65;3.90;;;;;;;11.94;100.00;100203.56;5093465;28;20020;-35
2022/10/01 06:20:39;;;;;;;4.68;4.15;;;;;;;11.99;100.00;100200.09;5093152;28;20032;-35
2022/10/01 06:23:08;;;;;;;4.47;4.07;;;;;;;11.97;100.00;100208.50;5093413;28;20040;-35
2022/10/01 06:25:36;;;;;;;4.40;4.00;;;;;;;11.93;100.00;100190.28;5092753;28;20055;-34
2022/10/01 06:28:01;;;;;;;5.28;4.78;;;;;;;12.00;100.00;100201.72;5093819;28;20031;-35
2022/10/01 06:30:30;;;;;;;5.88;4.47;;;;;;;12.01;100.00;100198.78;5092968;28;20020;-35
2022/10/01 06:33:10;;;;;;;6.00;4.95;;;;;;;11.96;100.00;100184.38;5075311;28;20047;-35
2022/10/01 06:35:40;;;;;;;5.20;4.72;;;;;;;12.00;100.00;100194.41;5093775;28;20077;-35
2022/10/01 06:38:06;;;;;;;6.60;5.18;;;;;;;12.06;100.00;100196.13;5092784;28;20038;-35
2022/10/01 06:40:32;;;;;;;;;;;;;;;12.13;100.00;100203.22;5093098;28;20032;-35
2022/10/01 06:42:57;;;;;;;6.13;5.53;;;;;;;12.19;100.00;100199.47;5093254;28;19916;-35
2022/10/01 06:45:28;;;;;;;6.18;5.05;;;;;;;12.21;100.00;100200.06;5092504;28;20044;-35
2022/10/01 06:48:02;;;;;;;5.80;5.20;;;;;;;12.23;100.00;100200.59;5093329;28;20081;-35
2022/10/01 06:50:29;;;;;;;6.93;5.50;;;;;;;12.29;100.00;100210.41;5093141;28;20059;-35
2022/10/01 06:52:55;;;;;;;6.13;5.63;;;;;;;12.35;100.00;100220.25;5092887;28;20028;-34
2022/10/01 06:55:22;;;;;;;;;;;;;;;12.38;100.00;100222.44;5093293;28;20031;-35
2022/10/01 06:57:54;;;;;;;7.20;6.53;;;;;;;12.39;100.00;100213.22;5093065;28;19911;-35
2022/10/01 07:00:19;;;;;;;7.10;6.55;;;;;;;12.39;100.00;100213.22;5092784;28;20035;-35
2022/10/01 07:02:44;;;;;;;8.43;7.60;;;;;;;12.45;100.00;100223.03;5093405;28;20040;-35
2022/10/01 07:05:11;;;;;;;8.77;8.03;;;;;;;12.46;100.00;100221.16;5092742;28;20278;-35
2022/10/01 07:07:37;;;;;;;8.45;7.72;;;;;;;12.47;100.00;100226.31;5092614;28;20058;-35
2022/10/01 07:10:04;;;;;;;7.82;7.13;;;;;;;12.48;100.00;100232.53;5092784;28;20024;-35
2022/10/01 07:12:30;;;;;;;8.43;7.35;;;;;;;12.49;100.00;100232.31;5092511;28;20107;-35
2022/10/01 07:14:55;;;;;;;7.88;7.20;;;;;;;12.54;100.00;100240.47;5092646;28;20056;-35
2022/10/01 07:17:21;;;;;;;7.30;6.60;;;;;;;12.52;100.00;100236.38;5092894;28;20484;-35
2022/10/01 07:19:47;;;;;;;7.38;6.57;;;;;;;12.56;100.00;100224.75;5092149;28;20353;-35
2022/10/01 07:22:12;;;;;;;6.95;6.13;;;;;;;12.68;100.00;100240.84;5093021;28;20107;-35
2022/10/01 07:24:37;;;;;;;9.38;6.90;;;;;;;12.63;100.00;100227.22;5093001;28;20036;-35
2022/10/01 07:27:03;;;;;;;8.50;7.70;;;;;;;12.71;100.00;100239.50;5092495;28;20081;-35
2022/10/01 07:29:29;;;;;;;10.13;9.20;;;;;;;12.86;100.00;100261.34;5092418;28;20334;-35
2022/10/01 07:31:58;;;;;;;13.80;12.40;;;;;;;12.93;100.00;100253.78;5092114;28;20051;-35
2022/10/01 07:34:23;;;;;;;13.68;12.25;;;;;;;13.00;100.00;100259.81;5092386;28;20050;-35
2022/10/01 07:36:49;;;;;;;12.88;11.68;;;;;;;13.03;100.00;100256.59;5092886;28;20028;-35
2022/10/01 07:39:14;;;;;;;11.88;10.60;;;;;;;13.05;100.00;100259.84;5092385;28;20491;-35
2022/10/01 07:41:41;;;;;;;9.70;8.60;;;;;;;13.03;100.00;100270.16;5092699;28;20525;-35
2022/10/01 07:44:07;;;;;;;12.27;8.93;;;;;;;13.00;100.00;100269.84;5092626;28;20339;-35
2022/10/01 07:46:32;;;;;;;10.32;8.25;;;;;;;12.99;100.00;100273.66;5093233;28;20082;-35
2022/10/01 07:48:57;;;;;;;9.05;8.15;;;;;;;12.96;100.00;100277.69;5092124;28;20058;-35
2022/10/01 07:51:25;;;;;;;8.53;7.60;;;;;;;12.88;100.00;100268.16;5092900;28;20040;-35
2022/10/01 07:53:50;;;;;;;9.35;7.13;;;;;;;12.93;100.00;100285.53;5085572;28;20304;-35
2022/10/01 07:56:16;;;;;;;8.32;6.70;;;;;;;12.89;100.00;100301.53;5055314;28;20120;-35
2022/10/01 07:58:42;;;;;;;7.70;6.50;;;;;;;12.88;100.00;100289.00;5075717;28;20469;-35
2022/10/01 08:01:08;;;;;;;7.68;6.90;;;;;;;12.88;100.00;100302.56;5075916;28;20068;-35
2022/10/01 08:03:33;;;;;;;;;;;;;;;12.89;100.00;100296.09;5076334;28;20020;-35
2022/10/01 08:05:59;;;;;;;6.32;5.63;;;;;;;12.86;100.00;100302.03;5076337;28;19965;-35
2022/10/01 08:08:24;;;;;;;5.83;4.30;;;;;;;12.84;100.00;100310.44;5075795;28;20029;-35
2022/10/01 08:10:49;;;;;;;5.33;4.53;;;;;;;12.89;100.00;100310.47;5075401;28;20271;-34
2022/10/01 08:13:16;;;;;;;6.90;4.95;;;;;;;12.96;100.00;100315.69;5076325;28;20032;-34
2022/10/01 08:15:49;;;;;;;6.95;5.45;;;;;;;13.05;100.00;100322.28;5088161;28;20063;-34
2022/10/01 08:18:14;;;;;;;6.45;5.80;;;;;;;13.15;100.00;100326.94;5096498;28;20060;-34
2022/10/01 08:20:40;;;;;;;7.57;6.65;;;;;;;13.22;100.00;100334.91;5095907;28;20040;-34
2022/10/01 08:23:09;;;;;;;7.60;6.65;;;;;;;13.26;100.00;100342.25;5095870;28;20031;-35
2022/10/01 08:25:35;;;;;;;9.35;7.60;;;;;;;13.26;100.00;100339.53;5095617;28;20047;-35
2022/10/01 08:28:01;;;;;;;10.85;8.05;;;;;;;13.25;100.00;100350.69;5095906;28;20081;-35
2022/10/01 08:30:27;;;;;;;9.57;8.23;;;;;;;13.23;100.00;100352.84;5095939;28;20425;-35
2022/10/01 08:32:57;;;;;;;9.70;8.70;;;;;;;13.19;100.00;100338.13;5095580;28;20036;-35
2022/10/01 08:35:24;;;;;;;9.63;8.73;;;;;;;13.26;100.00;100349.59;5095478;28;20042;-35
2022/10/01 08:37:49;;;;;;;11.93;9.00;;;;;;;13.28;100.00;100353.69;5095527;28;20111;-35
2022/10/01 08:40:16;;;;;;;9.63;8.63;;;;;;;13.32;100.00;100351.25;5095980;28;20107;-35
2022/10/01 08:42:50;;;;;;;9.77;8.65;;;;;;;13.36;100.00;100355.09;5095614;28;20066;-35
2022/10/01 08:45:25;;;;;;;10.25;9.32;;;;;;;13.38;100.00;100350.22;5095184;28;20080;-35
2022/10/01 08:48:08;;;;;;;10.35;9.35;;;;;;;13.43;100.00;100342.13;5095240;28;20024;-35
2022/10/01 08:50:48;;;;;;;10.80;9.70;;;;;;;13.65;100.00;100350.09;5095402;28;20491;-35
2022/10/01 08:53:27;;;;;;;12.18;10.02;;;;;;;13.76;100.00;100342.81;5094839;28;20487;-35
2022/10/01 08:55:54;;;;;;;10.55;9.45;;;;;;;13.98;100.00;100342.66;5095129;28;20145;-35
2022/10/01 08:58:27;;;;;;;12.00;8.23;;;;;;;14.04;100.00;100339.69;5094758;28;20503;-35
2022/10/01 09:00:53;;;;;;;9.77;7.63;;;;;;;14.25;100.00;100350.63;5095302;28;20024;-35
2022/10/01 09:03:18;;;;;;;9.27;6.97;;;;;;;14.28;100.00;100356.38;5095731;28;20186;-35
2022/10/01 09:06:21;;;;;;;9.18;6.13;;;;;;;14.38;100.00;100355.59;5094775;28;20031;-35
2022/10/01 09:09:08;;;;;;;6.63;4.85;;;;;;;14.41;100.00;100360.50;4993471;28;20470;-35
2022/10/01 09:11:43;;;;;;;5.93;4.75;;;;;;;14.51;100.00;100359.75;4993692;28;20042;-35
2022/10/01 09:14:31;;;;;;;7.78;4.72;;;;;;;14.60;100.00;100369.81;4993109;28;20065;-35
2022/10/01 09:16:57;;;;;;;6.50;4.35;;;;;;;14.65;100.00;100363.56;4992938;28;20487;-35
2022/10/01 09:19:22;;;;;;;;;;;;;;;14.85;100.00;100376.41;4993560;28;20066;-35
2022/10/01 09:22:06;;;;;;;6.57;3.87;;;;;;;14.85;100.00;100382.66;4992644;28;20009;-35
2022/10/01 09:25:02;;;;;;;8.48;3.38;;;;;;;14.87;100.00;100382.38;4993347;28;20105;-35
2022/10/01 09:27:28;;;;;;;7.05;3.63;;;;;;;14.85;100.00;100387.28;4993167;28;20042;-35
2022/10/01 09:30:23;;;;;;;;;;;;;;;14.91;100.00;100400.63;4992988;28;20038;-35
2022/10/01 09:32:58;;;;;;;5.30;2.90;;;;;;;14.76;100.00;100384.28;4934992;29;19914;-35
2022/10/01 09:35:33;;;;;;;9.40;3.50;;;;;;;14.85;100.00;100387.28;4934632;29;20103;-35
2022/10/01 09:38:09;;;;;;;8.57;2.83;;;;;;;15.03;100.00;100397.66;4934698;29;20170;-35
2022/10/01 09:40:48;;;;;;;13.83;3.53;;;;;;;15.29;100.00;100392.19;4934629;29;20044;-35
2022/10/01 09:43:14;;;;;;;7.40;2.00;;;;;;;15.38;100.00;100382.41;4989478;28;20320;-34
2022/10/01 09:45:39;;;;;;;;;;;;;;;15.49;100.00;100392.19;5012170;28;20040;-34
2022/10/01 09:48:26;;;;;;;8.80;2.50;;;;;;;15.58;100.00;100396.00;5012057;28;19913;-35
2022/10/01 09:50:57;;;;;;;12.23;2.60;;;;;;;15.68;100.00;100379.66;5011688;28;20081;-35
2022/10/01 09:53:33;;;;;;;11.07;2.45;;;;;;;15.90;100.00;100386.66;5011945;28;20138;-35
2022/10/01 09:56:02;;;;;;;;;;;;;;;15.96;100.00;100397.31;5012300;28;20077;-35
2022/10/01 09:58:29;;;;;;;12.80;2.95;;;;;;;15.89;100.00;100395.94;5012338;28;20237;-35
2022/10/01 10:00:55;;;;;;;10.32;2.58;;;;;;;15.88;100.00;100395.13;5011520;28;20373;-35
2022/10/01 10:03:29;;;;;;;10.48;2.30;;;;;;;15.87;100.00;100400.88;5011579;28;20120;-35
2022/10/01 10:05:56;;;;;;;9.20;2.55;;;;;;;15.81;100.00;100399.22;5012289;28;20038;-35
2022/10/01 10:08:39;;;;;;;12.25;2.95;;;;;;;15.76;100.00;100413.69;5025627;28;20047;-35
2022/10/01 10:11:21;;;;;;;9.68;2.20;;;;;;;15.58;100.00;100406.88;5093856;28;20043;-35
2022/10/01 10:13:53;;;;;;;11.00;2.40;;;;;;;15.53;100.00;100420.53;5093804;28;20032;-35
2022/10/01 10:16:22;;;;;;;9.77;2.10;;;;;;;15.60;100.00;100415.59;5075222;28;20391;-35
2022/10/01 10:18:51;;;;;;;7.75;1.95;;;;;;;15.60;100.00;100421.03;5093174;28;20032;-35
2022/10/01 10:21:26;;;;;;;8.75;2.13;;;;;;;15.49;100.00;100437.69;5093156;28;20039;-35
2022/10/01 10:24:00;;;;;;;8.45;1.88;;;;;;;15.35;100.00;100429.25;5083444;28;20538;-35
2022/10/01 10:26:33;;;;;;;13.13;2.85;;;;;;;15.37;100.00;100443.41;5073269;28;20064;-35
2022/10/01 10:29:01;;;;;;;8.60;2.03;;;;;;;15.36;100.00;100449.94;5073234;28;20048;-35
2022/10/01 10:31:45;;;;;;;11.27;2.65;;;;;;;15.46;100.00;100461.66;5073793;28;20029;-35
2022/10/01 10:34:37;;;;;;;10.50;2.45;;;;;;;15.64;99.13;100468.50;5073187;28;20118;-35
2022/10/01 10:37:10;;;;;;;9.95;2.33;;;;;;;15.88;97.86;100476.13;5074013;28;20503;-35
2022/10/01 10:39:39;;;;;;;12.02;2.30;;;;;;;15.94;96.78;100461.38;5091134;28;20468;-35
2022/10/01 10:42:06;;;;;;;13.68;3.13;;;;;;;16.03;94.22;100476.09;5092758;28;20567;-36
2022/10/01 10:44:40;;;;;;;9.43;2.40;;;;;;;16.18;95.69;100481.50;5093177;28;20034;-35
2022/10/01 10:47:10;;;;;;;12.02;2.70;;;;;;;16.17;94.43;100477.13;5092939;28;20082;-35
2022/10/01 10:49:58;;;;;;;11.73;2.42;;;;;;;16.35;95.22;100480.38;5070863;28;20083;-35
2022/10/01 10:52:29;;;;;;;10.38;2.30;;;;;;;16.42;92.63;100480.88;5073830;28;20102;-35
2022/10/01 10:54:57;;;;;;;7.57;2.38;;;;;;;16.51;92.75;100475.66;5072948;28;20460;-35
2022/10/01 10:57:27;;;;;;;7.95;2.25;;;;;;;16.40;90.45;100494.00;5072785;28;20546;-35
2022/10/01 11:00:16;;;;;;;10.48;2.30;;;;;;;16.28;93.60;100502.47;5073115;28;20028;-35
2022/10/01 11:02:58;;;;;;;13.50;2.85;;;;;;;16.07;92.01;100501.72;5072941;28;20036;-35
2022/10/01 11:05:30;;;;;;;9.82;2.22;;;;;;;15.89;91.61;100508.56;5073546;28;20033;-35
2022/10/01 11:08:03;;;;;;;12.20;2.60;;;;;;;15.81;91.96;100516.47;5073511;28;20047;-35
2022/10/01 11:10:41;;;;;;;10.43;2.42;;;;;;;15.76;91.78;100522.72;5072933;28;20396;-35
2022/10/01 11:13:31;;;;;;;9.52;2.20;;;;;;;15.68;91.41;100509.66;5072636;28;20461;-35
2022/10/01 11:16:08;;;;;;;7.82;2.40;;;;;;;15.75;92.23;100520.28;5072658;28;20032;-35
2022/10/01 11:18:47;;;;;;;12.35;2.15;;;;;;;15.67;90.43;100532.56;5072390;28;20024;-35
2022/10/01 11:21:47;;;;;;;9.82;2.83;;;;;;;15.54;91.87;100525.69;5073273;28;20056;-35
2022/10/01 11:24:31;;;;;;;10.45;2.50;;;;;;;15.53;90.65;100536.88;5073407;28;20115;-35
2022/10/01 11:27:14;;;;;;;7.72;2.00;;;;;;;15.40;91.08;100533.59;5073417;28;20177;-35
2022/10/01 11:29:51;;;;;;;13.55;2.80;;;;;;;15.48;90.93;100554.03;5073473;28;20051;-35
2022/10/01 11:32:35;;;;;;;10.73;2.00;;;;;;;15.62;90.73;100546.16;5074850;28;20043;-35